createdAt,value
2022-11-22T00:00:00.978Z,97516.69
2022-11-22T00:00:33.733Z,97521.06
2022-11-22T00:00:46.581Z,97524.44
2022-11-22T00:00:59.448Z,97518.44
2022-11-22T00:01:12.316Z,97516.63
2022-11-22T00:01:26.370Z,97515.87
2022-11-22T00:01:40.131Z,97519.38
2022-11-22T00:01:53.030Z,97518.47
2022-11-22T00:02:25.541Z,97509.66
2022-11-22T00:02:38.476Z,97512.28
2022-11-22T00:02:51.338Z,97516.59
2022-11-22T00:03:04.600Z,97517.50
2022-11-22T00:03:37.954Z,97514.06
2022-11-22T00:03:51.014Z,97511.50
2022-11-22T00:04:03.897Z,97510.63
2022-11-22T00:04:17.079Z,97514.97
2022-11-22T00:04:30.146Z,97509.69
2022-11-22T00:05:03.593Z,97505.50
2022-11-22T00:05:17.546Z,97508.06
2022-11-22T00:05:31.396Z,97509.75
2022-11-22T00:06:22.930Z,97507.13
2022-11-22T00:06:35.585Z,97507.84
2022-11-22T00:06:48.488Z,97507.84
2022-11-22T00:07:01.885Z,97507.00
2022-11-22T00:07:15.114Z,97511.41
2022-11-22T00:07:28.088Z,97506.16
2022-11-22T00:07:41.353Z,97512.22
2022-11-22T00:07:54.508Z,97503.56
2022-11-22T00:08:09.007Z,97517.56
2022-11-22T00:08:41.516Z,97505.41
2022-11-22T00:08:54.586Z,97507.09
2022-11-22T00:09:07.462Z,97512.41
2022-11-22T00:09:20.259Z,97507.13
2022-11-22T00:09:34.498Z,97504.62
2022-11-22T00:09:47.366Z,97507.25
2022-11-22T00:10:19.936Z,97505.47
2022-11-22T00:10:52.566Z,97507.16
2022-11-22T00:11:13.367Z,97505.38
2022-11-22T00:11:26.231Z,97502.84
2022-11-22T00:11:40.106Z,97502.88
2022-11-22T00:11:56.764Z,97504.59
2022-11-22T00:12:09.590Z,97503.69
2022-11-22T00:12:22.405Z,97505.41
2022-11-22T00:12:36.192Z,97506.28
2022-11-22T00:13:27.390Z,97505.41
2022-11-22T00:13:43.260Z,97503.75
2022-11-22T00:13:56.088Z,97507.13
2022-11-22T00:14:09.352Z,97504.47
2022-11-22T00:14:23.027Z,97500.97
2022-11-22T00:14:36.183Z,97507.09
2022-11-22T00:14:55.441Z,97508.75
2022-11-22T00:15:10.840Z,97507.00
2022-11-22T00:15:23.478Z,97501.00
2022-11-22T00:15:36.333Z,97500.91
2022-11-22T00:16:00.303Z,97507.03
2022-11-22T00:16:13.527Z,97511.44
2022-11-22T00:16:26.816Z,97502.75
2022-11-22T00:16:39.679Z,97507.94
2022-11-22T00:16:52.570Z,97512.34
2022-11-22T00:17:05.458Z,97513.97
2022-11-22T00:17:18.308Z,97515.66
2022-11-22T00:17:39.198Z,97513.84
2022-11-22T00:18:12.131Z,97506.16
2022-11-22T00:18:25.271Z,97510.50
2022-11-22T00:18:42.520Z,97513.94
2022-11-22T00:18:55.374Z,97512.19
2022-11-22T00:19:09.774Z,97513.94
2022-11-22T00:19:25.591Z,97512.22
2022-11-22T00:19:39.573Z,97510.50
2022-11-22T00:19:54.271Z,97513.00
2022-11-22T00:20:08.164Z,97508.72
2022-11-22T00:20:21.189Z,97507.84
2022-11-22T00:20:34.206Z,97513.12
2022-11-22T00:20:47.204Z,97509.75
2022-11-22T00:21:06.053Z,97509.75
2022-11-22T00:21:19.039Z,97509.63
2022-11-22T00:21:31.822Z,97511.41
2022-11-22T00:21:44.719Z,97510.56
2022-11-22T00:22:17.258Z,97516.72
2022-11-22T00:22:31.317Z,97514.09
2022-11-22T00:22:48.955Z,97514.16
2022-11-22T00:23:02.038Z,97519.41
2022-11-22T00:23:14.908Z,97515.87
2022-11-22T00:23:28.003Z,97515.00
2022-11-22T00:23:41.414Z,97515.87
2022-11-22T00:23:57.570Z,97521.06
2022-11-22T00:24:12.696Z,97522.81
2022-11-22T00:24:37.509Z,97518.47
2022-11-22T00:25:10.625Z,97516.81
2022-11-22T00:25:27.389Z,97522.81
2022-11-22T00:25:40.576Z,97521.94
2022-11-22T00:26:13.102Z,97521.81
2022-11-22T00:26:26.148Z,97517.44
2022-11-22T00:26:38.960Z,97519.28
2022-11-22T00:26:51.797Z,97525.41
2022-11-22T00:27:24.543Z,97515.78
2022-11-22T00:27:38.313Z,97521.00
2022-11-22T00:27:51.548Z,97520.22
2022-11-22T00:28:24.072Z,97520.19
2022-11-22T00:28:39.723Z,97521.81
2022-11-22T00:28:52.689Z,97517.44
2022-11-22T00:29:05.559Z,97516.59
2022-11-22T00:29:18.687Z,97515.78
2022-11-22T00:29:31.919Z,97520.09
2022-11-22T00:29:45.099Z,97519.22
2022-11-22T00:29:57.917Z,97512.28
2022-11-22T00:30:11.330Z,97512.28
2022-11-22T00:30:24.273Z,97521.88
2022-11-22T00:30:37.090Z,97523.53
2022-11-22T00:30:50.374Z,97522.59
2022-11-22T00:31:22.971Z,97511.28
2022-11-22T00:31:36.035Z,97515.72
2022-11-22T00:31:49.146Z,97519.16
2022-11-22T00:32:02.015Z,97516.59
2022-11-22T00:32:15.111Z,97520.06
2022-11-22T00:32:27.947Z,97512.28
2022-11-22T00:33:19.186Z,97509.63
2022-11-22T00:33:32.240Z,97513.94
2022-11-22T00:33:45.109Z,97508.72
2022-11-22T00:33:58.160Z,97513.03
2022-11-22T00:34:30.680Z,97519.16
2022-11-22T00:34:43.383Z,97511.41
2022-11-22T00:35:19.010Z,97504.38
2022-11-22T00:35:32.331Z,97513.97
2022-11-22T00:35:46.321Z,97512.22
2022-11-22T00:35:59.129Z,97515.78
2022-11-22T00:36:11.983Z,97513.97
2022-11-22T00:36:24.900Z,97512.19
2022-11-22T00:36:37.737Z,97515.72
2022-11-22T00:36:50.591Z,97511.38
2022-11-22T00:37:03.473Z,97516.63
2022-11-22T00:37:16.736Z,97514.84
2022-11-22T00:37:29.778Z,97510.56
2022-11-22T00:37:44.991Z,97508.81
2022-11-22T00:38:36.180Z,97510.59
2022-11-22T00:38:49.863Z,97514.06
2022-11-22T00:39:03.190Z,97512.28
2022-11-22T00:39:16.471Z,97517.44
2022-11-22T00:39:29.574Z,97510.41
2022-11-22T00:39:45.489Z,97505.19
2022-11-22T00:40:18.994Z,97508.72
2022-11-22T00:40:31.645Z,97507.09
2022-11-22T00:40:44.666Z,97508.84
2022-11-22T00:40:57.825Z,97504.47
2022-11-22T00:41:15.111Z,97501.72
2022-11-22T00:41:27.806Z,97503.53
2022-11-22T00:42:19.121Z,97501.72
2022-11-22T00:42:32.645Z,97499.06
2022-11-22T00:42:45.903Z,97498.22
2022-11-22T00:43:00.982Z,97504.25
2022-11-22T00:43:13.831Z,97499.06
2022-11-22T00:43:26.667Z,97505.19
2022-11-22T00:43:39.601Z,97504.34
2022-11-22T00:43:52.833Z,97498.31
2022-11-22T00:44:05.764Z,97500.06
2022-11-22T00:44:19.663Z,97507.81
2022-11-22T00:44:32.516Z,97500.91
2022-11-22T00:45:23.658Z,97496.56
2022-11-22T00:45:36.516Z,97500.06
2022-11-22T00:45:49.328Z,97496.59
2022-11-22T00:46:02.763Z,97497.53
2022-11-22T00:46:15.649Z,97499.28
2022-11-22T00:46:28.596Z,97495.81
2022-11-22T00:47:19.936Z,97497.53
2022-11-22T00:47:32.899Z,97492.31
2022-11-22T00:47:45.988Z,97496.69
2022-11-22T00:47:59.789Z,97491.53
2022-11-22T00:48:12.705Z,97493.25
2022-11-22T00:48:26.167Z,97496.62
2022-11-22T00:48:43.577Z,97492.16
2022-11-22T00:48:56.413Z,97492.09
2022-11-22T00:49:09.581Z,97492.09
2022-11-22T00:49:42.995Z,97492.97
2022-11-22T00:49:58.026Z,97490.41
2022-11-22T00:50:11.338Z,97493.09
2022-11-22T00:50:25.060Z,97499.22
2022-11-22T00:50:38.182Z,97495.72
2022-11-22T00:50:51.570Z,97498.34
2022-11-22T00:51:43.029Z,97491.31
2022-11-22T00:51:56.834Z,97495.69
2022-11-22T00:52:48.070Z,97494.91
2022-11-22T00:53:01.152Z,97495.81
2022-11-22T00:53:13.978Z,97501.00
2022-11-22T00:53:46.770Z,97499.28
2022-11-22T00:54:19.589Z,97496.59
2022-11-22T00:54:54.950Z,97497.50
2022-11-22T00:55:08.259Z,97499.13
2022-11-22T00:55:42.891Z,97496.47
2022-11-22T00:55:56.231Z,97500.06
2022-11-22T00:56:09.112Z,97495.69
2022-11-22T00:56:23.018Z,97493.03
2022-11-22T00:56:55.561Z,97498.28
2022-11-22T00:57:08.211Z,97493.87
2022-11-22T00:57:21.024Z,97497.34
2022-11-22T00:57:33.943Z,97492.22
2022-11-22T00:57:46.811Z,97499.16
2022-11-22T00:57:59.646Z,97496.53
2022-11-22T00:58:12.916Z,97493.06
2022-11-22T00:58:25.732Z,97498.28
2022-11-22T00:58:39.062Z,97500.00
2022-11-22T00:58:52.384Z,97498.28
2022-11-22T00:59:06.292Z,97495.69
2022-11-22T00:59:19.233Z,97500.09
2022-11-22T01:00:10.204Z,97493.16
2022-11-22T01:00:25.052Z,97499.22
2022-11-22T01:00:40.135Z,97495.69
2022-11-22T01:00:56.557Z,97491.28
2022-11-22T01:01:09.527Z,97486.09
2022-11-22T01:01:22.292Z,97500.87
2022-11-22T01:01:35.302Z,97495.59
2022-11-22T01:01:48.656Z,97501.75
2022-11-22T01:02:01.499Z,97493.03
2022-11-22T01:02:35.198Z,97495.69
2022-11-22T01:03:26.446Z,97493.94
2022-11-22T01:03:39.299Z,97496.59
2022-11-22T01:03:52.106Z,97498.31
2022-11-22T01:04:05.090Z,97491.38
2022-11-22T01:04:17.909Z,97500.06
2022-11-22T01:04:39.256Z,97496.53
2022-11-22T01:04:52.126Z,97494.81
2022-11-22T01:05:05.257Z,97494.88
2022-11-22T01:05:20.149Z,97498.31
2022-11-22T01:05:33.945Z,97494.81
2022-11-22T01:05:51.464Z,97498.31
2022-11-22T01:06:04.483Z,97493.03
2022-11-22T01:06:18.199Z,97495.63
2022-11-22T01:06:31.620Z,97496.47
2022-11-22T01:06:46.386Z,97500.81
2022-11-22T01:07:18.976Z,97501.69
2022-11-22T01:07:31.780Z,97495.59
2022-11-22T01:08:23.091Z,97500.87
2022-11-22T01:08:36.240Z,97492.16
2022-11-22T01:08:49.290Z,97494.81
2022-11-22T01:09:03.138Z,97494.78
2022-11-22T01:09:18.263Z,97493.94
2022-11-22T01:09:50.788Z,97495.63
2022-11-22T01:10:04.672Z,97497.44
2022-11-22T01:11:04.543Z,97499.16
2022-11-22T01:11:17.866Z,97495.72
2022-11-22T01:11:30.817Z,97495.88
2022-11-22T01:11:44.396Z,97498.44
2022-11-22T01:11:57.423Z,97498.47
2022-11-22T01:12:10.759Z,97496.75
2022-11-22T01:12:27.499Z,97497.75
2022-11-22T01:12:40.670Z,97490.72
2022-11-22T01:13:32.417Z,97502.84
2022-11-22T01:13:45.798Z,97500.28
2022-11-22T01:13:59.014Z,97495.03
2022-11-22T01:14:12.513Z,97503.75
2022-11-22T01:14:45.040Z,97498.44
2022-11-22T01:15:17.760Z,97506.16
2022-11-22T01:15:31.588Z,97504.44
2022-11-22T01:15:46.457Z,97502.75
2022-11-22T01:16:19.376Z,97494.91
2022-11-22T01:16:34.926Z,97502.72
2022-11-22T01:16:48.774Z,97494.03
2022-11-22T01:17:22.582Z,97495.72
2022-11-22T01:17:36.031Z,97499.25
2022-11-22T01:17:49.057Z,97496.69
2022-11-22T01:18:02.240Z,97493.97
2022-11-22T01:18:15.100Z,97493.22
2022-11-22T01:18:28.062Z,97494.91
2022-11-22T01:18:43.116Z,97496.56
2022-11-22T01:18:56.426Z,97493.94
2022-11-22T01:19:09.304Z,97489.59
2022-11-22T01:19:30.558Z,97490.41
2022-11-22T01:19:44.428Z,97491.31
2022-11-22T01:19:57.248Z,97491.31
2022-11-22T01:20:12.357Z,97494.81
2022-11-22T01:20:25.364Z,97487.81
2022-11-22T01:20:40.715Z,97491.31
2022-11-22T01:20:53.907Z,97487.09
2022-11-22T01:21:09.033Z,97490.56
2022-11-22T01:21:21.876Z,97487.09
2022-11-22T01:21:34.738Z,97485.28
2022-11-22T01:21:52.251Z,97489.59
2022-11-22T01:22:04.907Z,97490.47
2022-11-22T01:22:17.712Z,97485.25
2022-11-22T01:22:30.548Z,97486.19
2022-11-22T01:22:43.381Z,97487.00
2022-11-22T01:22:57.515Z,97488.69
2022-11-22T01:23:10.771Z,97489.59
2022-11-22T01:23:24.159Z,97493.09
2022-11-22T01:23:37.010Z,97487.81
2022-11-22T01:23:49.830Z,97486.00
2022-11-22T01:24:02.745Z,97488.72
2022-11-22T01:24:15.742Z,97493.03
2022-11-22T01:24:28.778Z,97484.28
2022-11-22T01:24:42.048Z,97484.91
2022-11-22T01:24:54.923Z,97491.00
2022-11-22T01:25:08.380Z,97487.53
2022-11-22T01:25:22.314Z,97482.25
2022-11-22T01:25:42.096Z,97484.06
2022-11-22T01:26:34.385Z,97489.31
2022-11-22T01:26:47.242Z,97486.88
2022-11-22T01:27:00.052Z,97480.72
2022-11-22T01:27:13.110Z,97491.22
2022-11-22T01:27:26.346Z,97488.63
2022-11-22T01:27:42.819Z,97488.63
2022-11-22T01:27:55.472Z,97488.66
2022-11-22T01:28:08.598Z,97490.38
2022-11-22T01:28:21.497Z,97486.00
2022-11-22T01:28:37.830Z,97482.56
2022-11-22T01:29:29.267Z,97486.03
2022-11-22T01:30:19.824Z,97483.34
2022-11-22T01:30:33.796Z,97485.19
2022-11-22T01:31:06.337Z,97486.00
2022-11-22T01:31:23.438Z,97488.44
2022-11-22T01:31:36.123Z,97478.97
2022-11-22T01:32:08.664Z,97483.25
2022-11-22T01:32:21.867Z,97477.94
2022-11-22T01:32:34.781Z,97479.75
2022-11-22T01:32:48.404Z,97486.72
2022-11-22T01:33:03.377Z,97485.84
2022-11-22T01:33:16.198Z,97477.13
2022-11-22T01:33:29.934Z,97485.87
2022-11-22T01:33:42.752Z,97486.00
2022-11-22T01:33:59.062Z,97488.63
2022-11-22T01:34:13.246Z,97479.06
2022-11-22T01:34:28.266Z,97480.81
2022-11-22T01:35:00.805Z,97479.88
2022-11-22T01:35:13.444Z,97477.19
2022-11-22T01:35:26.976Z,97479.84
2022-11-22T01:35:59.757Z,97477.19
2022-11-22T01:36:13.661Z,97481.53
2022-11-22T01:37:05.280Z,97478.16
2022-11-22T01:37:18.970Z,97480.56
2022-11-22T01:37:34.465Z,97481.41
2022-11-22T01:37:47.818Z,97473.59
2022-11-22T01:38:00.714Z,97478.87
2022-11-22T01:38:13.570Z,97474.56
2022-11-22T01:38:46.147Z,97481.38
2022-11-22T01:38:58.886Z,97480.50
2022-11-22T01:39:13.935Z,97480.50
2022-11-22T01:39:27.869Z,97476.22
2022-11-22T01:39:42.028Z,97481.53
2022-11-22T01:39:55.392Z,97475.50
2022-11-22T01:40:10.198Z,97485.06
2022-11-22T01:40:23.069Z,97485.84
2022-11-22T01:40:55.608Z,97482.41
2022-11-22T01:41:28.145Z,97475.47
2022-11-22T01:41:40.981Z,97486.09
2022-11-22T01:41:53.800Z,97476.44
2022-11-22T01:42:06.787Z,97483.44
2022-11-22T01:42:19.857Z,97479.91
2022-11-22T01:42:53.820Z,97484.28
2022-11-22T01:43:31.006Z,97483.38
2022-11-22T01:43:44.148Z,97478.16
2022-11-22T01:43:56.846Z,97479.84
2022-11-22T01:44:21.963Z,97481.50
2022-11-22T01:44:39.317Z,97478.94
2022-11-22T01:44:54.487Z,97480.69
2022-11-22T01:45:30.457Z,97478.87
2022-11-22T01:45:46.889Z,97481.53
2022-11-22T01:46:27.480Z,97484.97
2022-11-22T01:46:42.163Z,97483.34
2022-11-22T01:47:21.441Z,97479.91
2022-11-22T01:47:54.229Z,97486.88
2022-11-22T01:48:34.597Z,97493.09
2022-11-22T01:48:49.446Z,97485.09
2022-11-22T01:49:04.502Z,97487.81
2022-11-22T01:49:40.054Z,97483.50
2022-11-22T01:49:55.556Z,97484.19
2022-11-22T01:50:11.401Z,97488.41
2022-11-22T01:50:24.876Z,97488.50
2022-11-22T01:50:40.320Z,97485.84
2022-11-22T01:50:55.599Z,97485.91
2022-11-22T01:51:44.495Z,97490.28
2022-11-22T01:52:01.435Z,97484.88
2022-11-22T01:52:19.779Z,97486.50
2022-11-22T01:52:32.848Z,97475.22
2022-11-22T01:52:46.024Z,97483.88
2022-11-22T01:53:00.857Z,97482.12
2022-11-22T01:53:18.815Z,97481.31
2022-11-22T01:53:36.157Z,97476.19
2022-11-22T01:54:28.651Z,97480.56
2022-11-22T01:54:44.764Z,97488.56
2022-11-22T01:55:17.847Z,97480.78
2022-11-22T01:56:10.472Z,97479.88
2022-11-22T01:56:32.203Z,97480.38
2022-11-22T01:56:51.260Z,97475.22
2022-11-22T01:57:05.559Z,97482.22
2022-11-22T01:57:21.000Z,97486.63
2022-11-22T01:57:35.666Z,97484.13
2022-11-22T01:57:49.081Z,97480.69
2022-11-22T01:58:21.904Z,97483.22
2022-11-22T01:58:37.617Z,97486.72
2022-11-22T01:59:13.654Z,97485.91
2022-11-22T01:59:48.192Z,97482.53
2022-11-22T02:00:04.221Z,97479.78
2022-11-22T02:00:18.316Z,97477.13
2022-11-22T02:00:31.135Z,97479.72
2022-11-22T02:00:44.136Z,97477.09
2022-11-22T02:00:57.315Z,97483.19
2022-11-22T02:01:48.665Z,97477.91
2022-11-22T02:02:21.447Z,97474.47
2022-11-22T02:02:34.883Z,97479.78
2022-11-22T02:02:51.459Z,97474.56
2022-11-22T02:03:06.046Z,97479.84
2022-11-22T02:03:19.184Z,97476.31
2022-11-22T02:03:32.505Z,97480.78
2022-11-22T02:03:46.534Z,97476.38
2022-11-22T02:04:04.939Z,97472.94
2022-11-22T02:04:19.813Z,97478.03
2022-11-22T02:04:33.269Z,97477.13
2022-11-22T02:04:46.171Z,97477.19
2022-11-22T02:04:59.275Z,97478.00
2022-11-22T02:05:32.759Z,97480.56
2022-11-22T02:05:45.411Z,97474.47
2022-11-22T02:05:59.145Z,97475.38
2022-11-22T02:06:12.177Z,97474.56
2022-11-22T02:06:26.380Z,97477.13
2022-11-22T02:08:00.306Z,97477.94
2022-11-22T02:08:17.877Z,97478.84
2022-11-22T02:08:56.923Z,97473.59
2022-11-22T02:09:31.756Z,97484.06
2022-11-22T02:09:45.197Z,97474.34
2022-11-22T02:09:58.452Z,97476.94
2022-11-22T02:10:11.474Z,97482.91
2022-11-22T02:10:26.570Z,97482.09
2022-11-22T02:10:44.951Z,97474.34
2022-11-22T02:10:57.802Z,97473.59
2022-11-22T02:11:11.480Z,97477.84
2022-11-22T02:11:27.445Z,97475.22
2022-11-22T02:11:47.880Z,97471.88
2022-11-22T02:12:01.452Z,97477.94
2022-11-22T02:12:14.558Z,97476.88
2022-11-22T02:12:28.419Z,97479.53
2022-11-22T02:12:44.939Z,97476.94
2022-11-22T02:12:58.324Z,97477.94
2022-11-22T02:13:11.233Z,97473.59
2022-11-22T02:13:26.324Z,97475.47
2022-11-22T02:13:41.813Z,97474.56
2022-11-22T02:13:54.684Z,97469.34
2022-11-22T02:14:08.857Z,97468.41
2022-11-22T02:14:25.508Z,97474.47
2022-11-22T02:14:38.519Z,97469.38
2022-11-22T02:14:51.419Z,97472.00
2022-11-22T02:15:04.974Z,97465.88
2022-11-22T02:15:18.925Z,97465.00
2022-11-22T02:15:32.274Z,97467.66
2022-11-22T02:15:45.134Z,97465.88
2022-11-22T02:15:58.896Z,97470.94
2022-11-22T02:16:11.809Z,97464.72
2022-11-22T02:16:26.898Z,97471.63
2022-11-22T02:16:39.730Z,97469.06
2022-11-22T02:16:53.097Z,97466.41
2022-11-22T02:17:06.506Z,97470.69
2022-11-22T02:17:21.291Z,97478.53
2022-11-22T02:17:34.263Z,97468.78
2022-11-22T02:17:48.160Z,97468.06
2022-11-22T02:18:01.150Z,97469.84
2022-11-22T02:18:35.935Z,97467.34
2022-11-22T02:18:48.807Z,97466.50
2022-11-22T02:19:01.774Z,97475.22
2022-11-22T02:19:34.494Z,97474.28
2022-11-22T02:19:50.963Z,97475.91
2022-11-22T02:20:04.779Z,97475.00
2022-11-22T02:20:17.543Z,97468.88
2022-11-22T02:20:30.340Z,97479.34
2022-11-22T02:20:44.133Z,97471.50
2022-11-22T02:20:57.007Z,97474.16
2022-11-22T02:21:09.897Z,97478.53
2022-11-22T02:21:23.889Z,97473.28
2022-11-22T02:21:37.217Z,97469.69
2022-11-22T02:21:52.102Z,97473.06
2022-11-22T02:30:50.641Z,97467.53
2022-11-22T02:31:03.877Z,97458.84
2022-11-22T02:31:37.718Z,97464.94
2022-11-22T02:32:29.446Z,97465.88
2022-11-22T02:32:42.645Z,97462.41
2022-11-22T02:32:57.322Z,97463.25
2022-11-22T02:33:10.462Z,97461.44
2022-11-22T02:33:23.554Z,97454.50
2022-11-22T02:33:36.412Z,97453.63
2022-11-22T02:33:49.772Z,97461.53
2022-11-22T02:34:02.866Z,97457.09
2022-11-22T02:34:17.749Z,97457.94
2022-11-22T02:34:40.327Z,97452.72
2022-11-22T02:34:53.691Z,97451.00
2022-11-22T02:35:27.278Z,97460.59
2022-11-22T02:36:00.725Z,97453.75
2022-11-22T02:36:13.865Z,97455.50
2022-11-22T02:36:27.778Z,97451.09
2022-11-22T02:37:21.075Z,97451.03
2022-11-22T02:37:35.320Z,97448.44
2022-11-22T02:38:43.740Z,97449.16
2022-11-22T02:38:56.624Z,97445.72
2022-11-22T02:39:09.676Z,97452.69
2022-11-22T02:39:25.826Z,97448.28
2022-11-22T02:39:38.711Z,97450.94
2022-11-22T02:40:03.038Z,97451.84
2022-11-22T02:40:17.705Z,97453.56
2022-11-22T02:41:13.326Z,97450.97
2022-11-22T02:41:25.956Z,97456.09
2022-11-22T02:42:19.039Z,97450.03
2022-11-22T02:42:33.165Z,97451.84
2022-11-22T02:43:02.876Z,97455.47
2022-11-22T02:43:22.130Z,97457.75
2022-11-22T02:43:35.692Z,97454.25
2022-11-22T02:43:48.416Z,97454.31
2022-11-22T02:44:21.299Z,97454.31
2022-11-22T02:44:34.145Z,97461.41
2022-11-22T02:44:47.465Z,97451.81
2022-11-22T02:45:20.246Z,97456.97
2022-11-22T02:45:53.423Z,97450.94
2022-11-22T02:46:07.991Z,97456.16
2022-11-22T02:46:48.146Z,97450.09
2022-11-22T02:47:01.195Z,97451.72
2022-11-22T02:47:15.043Z,97458.59
2022-11-22T02:47:27.915Z,97449.97
2022-11-22T02:48:11.105Z,97455.87
2022-11-22T02:48:26.045Z,97461.06
2022-11-22T02:48:44.328Z,97458.41
2022-11-22T02:48:57.975Z,97461.03
2022-11-22T02:49:30.939Z,97461.13
2022-11-22T02:49:44.532Z,97458.47
2022-11-22T02:49:57.630Z,97460.12
2022-11-22T02:50:10.926Z,97456.69
2022-11-22T02:51:02.255Z,97457.66
2022-11-22T02:51:17.127Z,97461.34
2022-11-22T02:51:31.051Z,97458.53
2022-11-22T02:51:44.887Z,97452.38
2022-11-22T02:52:18.150Z,97458.66
2022-11-22T02:52:31.456Z,97461.94
2022-11-22T02:53:22.437Z,97461.94
2022-11-22T02:53:57.013Z,97461.03
2022-11-22T02:54:13.727Z,97451.53
2022-11-22T02:55:05.068Z,97454.19
2022-11-22T02:55:37.604Z,97448.19
2022-11-22T02:55:50.591Z,97456.03
2022-11-22T02:56:42.295Z,97450.75
2022-11-22T02:56:55.176Z,97450.72
2022-11-22T02:57:08.955Z,97454.25
2022-11-22T02:57:21.874Z,97450.72
2022-11-22T02:57:34.681Z,97451.62
2022-11-22T02:57:47.954Z,97451.62
2022-11-22T02:58:02.855Z,97450.00
2022-11-22T02:58:15.714Z,97451.75
2022-11-22T02:58:28.770Z,97456.09
2022-11-22T02:58:41.790Z,97451.72
2022-11-22T02:58:55.261Z,97456.94
2022-11-22T02:59:08.205Z,97444.78
2022-11-22T02:59:29.567Z,97454.19
2022-11-22T02:59:42.954Z,97460.22
2022-11-22T02:59:56.166Z,97451.53
2022-11-22T03:00:12.952Z,97450.63
2022-11-22T03:00:25.904Z,97450.81
2022-11-22T03:00:39.700Z,97450.00
2022-11-22T03:00:53.057Z,97453.44
2022-11-22T03:01:06.985Z,97451.50
2022-11-22T03:01:19.953Z,97460.22
2022-11-22T03:01:33.125Z,97441.97
2022-11-22T03:01:47.223Z,97455.13
2022-11-22T03:02:03.404Z,97451.59
2022-11-22T03:02:17.656Z,97452.38
2022-11-22T03:02:30.704Z,97453.28
2022-11-22T03:02:43.528Z,97454.16
2022-11-22T03:02:56.380Z,97454.09
2022-11-22T03:03:09.224Z,97454.94
2022-11-22T03:03:22.088Z,97449.75
2022-11-22T03:03:54.667Z,97451.50
2022-11-22T03:04:07.482Z,97452.06
2022-11-22T03:04:26.341Z,97450.44
2022-11-22T03:04:56.899Z,97448.81
2022-11-22T03:05:10.411Z,97449.53
2022-11-22T03:05:23.230Z,97453.97
2022-11-22T03:05:36.419Z,97451.16
2022-11-22T03:05:50.461Z,97449.34
2022-11-22T03:06:03.815Z,97452.06
2022-11-22T03:06:16.679Z,97451.25
2022-11-22T03:06:30.789Z,97444.22
2022-11-22T03:07:04.726Z,97447.81
2022-11-22T03:07:18.377Z,97449.44
2022-11-22T03:07:35.078Z,97448.69
2022-11-22T03:07:49.797Z,97452.19
2022-11-22T03:08:02.762Z,97441.75
2022-11-22T03:08:37.260Z,97446.97
2022-11-22T03:08:55.939Z,97449.59
2022-11-22T03:09:26.185Z,97448.78
2022-11-22T03:10:18.335Z,97446.88
2022-11-22T03:11:09.978Z,97452.06
2022-11-22T03:11:24.222Z,97451.88
2022-11-22T03:11:37.776Z,97445.94
2022-11-22T03:12:10.320Z,97450.41
2022-11-22T03:12:26.434Z,97455.53
2022-11-22T03:12:39.641Z,97453.75
2022-11-22T03:12:52.475Z,97449.53
2022-11-22T03:13:05.601Z,97447.72
2022-11-22T03:13:38.326Z,97451.16
2022-11-22T03:13:52.225Z,97451.16
2022-11-22T03:14:05.078Z,97451.16
2022-11-22T03:14:20.845Z,97452.09
2022-11-22T03:14:34.269Z,97454.66
2022-11-22T03:14:47.172Z,97452.00
2022-11-22T03:14:59.996Z,97458.13
2022-11-22T03:15:13.279Z,97455.63
2022-11-22T03:15:48.742Z,97448.69
2022-11-22T03:16:01.592Z,97459.12
2022-11-22T03:16:14.920Z,97454.78
2022-11-22T03:16:28.077Z,97456.63
2022-11-22T03:16:42.900Z,97445.16
2022-11-22T03:17:16.548Z,97449.50
2022-11-22T03:17:30.490Z,97447.78
2022-11-22T03:17:44.174Z,97455.66
2022-11-22T03:18:00.470Z,97453.88
2022-11-22T03:18:33.550Z,97453.06
2022-11-22T03:18:46.512Z,97447.69
2022-11-22T03:18:59.283Z,97454.56
2022-11-22T03:19:12.286Z,97450.97
2022-11-22T03:19:25.417Z,97452.69
2022-11-22T03:19:38.259Z,97451.00
2022-11-22T03:20:11.034Z,97451.09
2022-11-22T03:20:28.539Z,97450.19
2022-11-22T03:20:41.837Z,97450.16
2022-11-22T03:20:54.666Z,97452.78
2022-11-22T03:21:09.066Z,97456.09
2022-11-22T03:21:21.979Z,97455.37
2022-11-22T03:21:54.530Z,97450.25
2022-11-22T03:22:07.276Z,97452.72
2022-11-22T03:22:20.581Z,97452.78
2022-11-22T03:22:33.628Z,97445.88
2022-11-22T03:22:46.690Z,97451.00
2022-11-22T03:23:19.228Z,97448.50
2022-11-22T03:23:32.979Z,97452.09
2022-11-22T03:23:46.073Z,97447.78
2022-11-22T03:23:58.968Z,97455.53
2022-11-22T03:24:11.903Z,97453.72
2022-11-22T03:24:25.167Z,97449.38
2022-11-22T03:24:38.385Z,97454.56
2022-11-22T03:24:51.465Z,97454.44
2022-11-22T03:25:42.891Z,97451.78
2022-11-22T03:25:55.550Z,97446.50
2022-11-22T03:26:09.138Z,97449.91
2022-11-22T03:26:46.572Z,97451.72
2022-11-22T03:26:59.732Z,97452.59
2022-11-22T03:27:12.638Z,97443.03
2022-11-22T03:27:25.540Z,97451.72
2022-11-22T03:27:38.418Z,97450.06
2022-11-22T03:27:51.286Z,97450.16
2022-11-22T03:28:04.291Z,97452.91
2022-11-22T03:28:17.842Z,97456.37
2022-11-22T03:28:30.983Z,97454.81
2022-11-22T03:28:43.820Z,97457.44
2022-11-22T03:28:59.776Z,97449.53
2022-11-22T03:29:17.686Z,97448.59
2022-11-22T03:29:30.725Z,97453.75
2022-11-22T03:29:43.774Z,97461.56
2022-11-22T03:29:57.100Z,97458.03
2022-11-22T03:30:10.402Z,97457.16
2022-11-22T03:30:23.837Z,97453.59
2022-11-22T03:30:41.319Z,97451.88
2022-11-22T03:30:54.011Z,97451.09
2022-11-22T03:31:07.417Z,97455.44
2022-11-22T03:31:20.298Z,97451.88
2022-11-22T03:31:33.139Z,97449.25
2022-11-22T03:31:46.086Z,97453.66
2022-11-22T03:31:58.923Z,97446.47
2022-11-22T03:32:11.752Z,97451.72
2022-11-22T03:32:26.763Z,97450.09
2022-11-22T03:32:39.632Z,97449.44
2022-11-22T03:32:52.521Z,97450.16
2022-11-22T03:33:06.384Z,97448.44
2022-11-22T03:33:19.183Z,97445.88
2022-11-22T03:33:32.618Z,97448.53
2022-11-22T03:33:45.533Z,97445.97
2022-11-22T03:33:58.747Z,97441.50
2022-11-22T03:34:12.783Z,97438.94
2022-11-22T03:34:28.061Z,97442.25
2022-11-22T03:35:00.579Z,97439.75
2022-11-22T03:35:21.186Z,97443.22
2022-11-22T03:35:34.432Z,97438.06
2022-11-22T03:35:47.275Z,97439.75
2022-11-22T03:36:09.556Z,97442.47
2022-11-22T03:36:22.196Z,97440.78
2022-11-22T03:36:37.507Z,97445.06
2022-11-22T03:36:50.366Z,97444.97
2022-11-22T03:37:03.200Z,97445.00
2022-11-22T03:37:16.028Z,97444.94
2022-11-22T03:37:28.944Z,97441.44
2022-11-22T03:37:41.759Z,97440.69
2022-11-22T03:38:14.284Z,97446.84
2022-11-22T03:38:26.968Z,97445.00
2022-11-22T03:38:39.823Z,97449.34
2022-11-22T03:38:53.152Z,97451.88
2022-11-22T03:39:06.206Z,97444.06
2022-11-22T03:39:38.734Z,97442.41
2022-11-22T03:40:11.356Z,97446.72
2022-11-22T03:40:24.644Z,97444.31
2022-11-22T03:40:37.606Z,97446.94
2022-11-22T03:40:56.522Z,97447.78
2022-11-22T03:41:09.301Z,97445.97
2022-11-22T03:41:23.094Z,97445.78
2022-11-22T03:41:44.951Z,97449.25
2022-11-22T03:41:57.717Z,97444.94
2022-11-22T03:42:10.534Z,97438.94
2022-11-22T03:42:23.682Z,97449.50
2022-11-22T03:42:36.519Z,97444.31
2022-11-22T03:42:49.455Z,97443.41
2022-11-22T03:43:02.817Z,97446.16
2022-11-22T03:43:16.174Z,97447.91
2022-11-22T03:44:07.327Z,97445.22
2022-11-22T03:44:20.235Z,97439.16
2022-11-22T03:44:51.020Z,97443.62
2022-11-22T03:45:04.410Z,97446.16